createdAt,value
2018-02-02T00:01:31.857Z,20.38
2018-02-02T00:03:57.800Z,20.39
2018-02-02T00:06:23.753Z,20.32
2018-02-02T00:08:49.729Z,20.34
2018-02-02T00:11:15.950Z,20.28
2018-02-02T00:13:41.904Z,20.29
2018-02-02T00:16:07.833Z,20.33
2018-02-02T00:18:33.796Z,20.30
2018-02-02T00:20:59.737Z,20.28
2018-02-02T00:23:25.706Z,20.22
2018-02-02T00:25:51.657Z,20.24
2018-02-02T00:28:17.591Z,20.23
2018-02-02T00:30:43.541Z,20.21
2018-02-02T00:33:09.481Z,20.21
2018-02-02T00:35:35.563Z,20.22
2018-02-02T00:38:01.505Z,20.22
2018-02-02T00:40:27.489Z,20.23
2018-02-02T00:42:53.429Z,20.20
2018-02-02T00:45:19.368Z,20.19
2018-02-02T00:47:45.310Z,20.19
2018-02-02T00:50:11.245Z,20.20
2018-02-02T00:52:37.189Z,20.20
2018-02-02T00:55:03.134Z,20.15
2018-02-02T00:57:29.068Z,20.22
2018-02-02T00:59:55.030Z,20.18
2018-02-02T01:02:20.988Z,20.18
2018-02-02T01:04:46.920Z,20.12
2018-02-02T01:07:12.914Z,20.11
2018-02-02T01:09:38.852Z,20.16
2018-02-02T01:12:04.818Z,20.13
2018-02-02T01:14:30.773Z,20.21
2018-02-02T01:16:56.721Z,20.13
2018-02-02T01:19:22.666Z,20.11
2018-02-02T01:21:48.613Z,20.15
2018-02-02T01:24:14.557Z,20.13
2018-02-02T01:26:40.506Z,20.05
2018-02-02T01:29:06.497Z,20.18
2018-02-02T01:31:32.441Z,20.11
2018-02-02T01:33:58.377Z,20.12
2018-02-02T01:36:24.316Z,20.15
2018-02-02T01:38:50.280Z,20.07
2018-02-02T01:41:16.225Z,20.12
2018-02-02T01:43:42.164Z,20.14
2018-02-02T01:46:08.112Z,20.13
2018-02-02T01:48:34.053Z,20.08
2018-02-02T01:50:59.999Z,20.06
2018-02-02T01:53:25.967Z,20.07
2018-02-02T01:55:51.917Z,20.05
2018-02-02T01:58:17.861Z,20.08
2018-02-02T02:00:43.801Z,20.12
2018-02-02T02:03:09.745Z,20.05
2018-02-02T02:05:35.779Z,20.02
2018-02-02T02:08:01.732Z,20.02
2018-02-02T02:10:27.684Z,20.06
2018-02-02T02:12:53.629Z,20.01
2018-02-02T02:15:19.594Z,20.00
2018-02-02T02:17:45.552Z,20.03
2018-02-02T02:20:11.632Z,20.05
2018-02-02T02:22:37.596Z,20.02
2018-02-02T02:25:03.541Z,20.00
2018-02-02T02:27:29.484Z,20.02
2018-02-02T02:29:55.436Z,19.98
2018-02-02T02:32:21.382Z,20.02
2018-02-02T02:34:47.353Z,20.01
2018-02-02T02:37:13.309Z,20.08
2018-02-02T02:39:39.245Z,20.01
2018-02-02T02:42:05.208Z,19.98
2018-02-02T02:44:31.155Z,19.92
2018-02-02T02:46:57.170Z,19.96
2018-02-02T02:49:23.106Z,20.06
2018-02-02T02:51:49.048Z,19.96
2018-02-02T02:54:14.995Z,20.01
2018-02-02T02:56:40.955Z,19.95
2018-02-02T02:59:06.905Z,19.98
2018-02-02T03:01:32.860Z,19.97
2018-02-02T03:03:58.805Z,19.97
2018-02-02T03:06:24.768Z,20.02
2018-02-02T03:08:50.743Z,19.97
2018-02-02T03:11:16.684Z,19.98
2018-02-02T03:13:42.645Z,19.93
2018-02-02T03:16:08.584Z,19.92
2018-02-02T03:18:34.565Z,19.94
2018-02-02T03:21:00.558Z,19.94
2018-02-02T03:23:26.488Z,19.90
2018-02-02T03:25:52.435Z,19.95
2018-02-02T03:28:18.389Z,19.95
2018-02-02T03:30:44.416Z,19.91
2018-02-02T03:33:10.373Z,19.86
2018-02-02T03:35:36.312Z,19.81
2018-02-02T03:38:02.414Z,19.88
2018-02-02T03:40:28.373Z,19.90
2018-02-02T03:42:54.324Z,19.86
2018-02-02T03:45:20.283Z,19.95
2018-02-02T03:47:46.229Z,20.08
2018-02-02T03:50:12.204Z,20.08
2018-02-02T03:52:38.272Z,20.32
2018-02-02T03:55:04.224Z,20.41
2018-02-02T03:57:30.168Z,20.46
2018-02-02T03:59:56.113Z,20.46
2018-02-02T04:02:22.072Z,20.50
2018-02-02T04:04:48.020Z,20.58
2018-02-02T04:07:14.037Z,20.64
2018-02-02T04:09:39.978Z,20.61
2018-02-02T04:12:05.937Z,20.53
2018-02-02T04:14:31.881Z,20.67
2018-02-02T04:16:57.832Z,20.73
2018-02-02T04:19:23.773Z,20.68
2018-02-02T04:21:49.773Z,20.66
2018-02-02T04:24:15.728Z,20.74
2018-02-02T04:26:41.669Z,20.82
2018-02-02T04:29:07.609Z,20.72
2018-02-02T04:31:33.553Z,20.71
2018-02-02T04:33:59.521Z,20.67
2018-02-02T04:36:25.466Z,20.68
2018-02-02T04:38:51.424Z,20.59
2018-02-02T04:41:17.352Z,20.58
2018-02-02T04:43:43.293Z,20.55
2018-02-02T04:46:09.228Z,20.57
2018-02-02T04:48:35.257Z,20.55
2018-02-02T04:51:01.199Z,20.54
2018-02-02T04:53:27.146Z,20.51
2018-02-02T04:55:53.161Z,20.58
2018-02-02T04:58:19.113Z,20.62
2018-02-02T05:00:45.055Z,20.66
2018-02-02T05:03:11.005Z,20.54
2018-02-02T05:05:36.950Z,20.57
2018-02-02T05:08:02.902Z,20.54
2018-02-02T05:10:29.130Z,20.47
2018-02-02T05:12:55.082Z,20.47
2018-02-02T05:15:21.023Z,20.43
2018-02-02T05:17:47.005Z,20.43
2018-02-02T05:20:12.940Z,20.46
2018-02-02T05:22:38.884Z,20.36
2018-02-02T05:25:04.971Z,20.40
2018-02-02T05:27:30.927Z,20.40
2018-02-02T05:29:56.884Z,20.33
2018-02-02T05:32:22.872Z,20.39
2018-02-02T05:34:48.808Z,20.38
2018-02-02T05:37:14.789Z,20.35
2018-02-02T05:39:40.744Z,20.36
2018-02-02T05:42:06.692Z,20.43
2018-02-02T05:44:32.620Z,20.56
2018-02-02T05:46:58.569Z,20.54
2018-02-02T05:49:24.536Z,20.49
2018-02-02T05:51:50.497Z,20.45
2018-02-02T05:54:16.465Z,20.54
2018-02-02T05:56:42.405Z,20.43
2018-02-02T05:59:08.341Z,20.44
2018-02-02T06:01:34.312Z,20.48
2018-02-02T06:04:00.253Z,20.56
2018-02-02T06:06:26.215Z,20.46
2018-02-02T06:08:52.149Z,20.43
2018-02-02T06:11:18.110Z,20.44
2018-02-02T06:13:44.091Z,20.35
2018-02-02T06:16:10.037Z,20.40
2018-02-02T06:18:36.013Z,20.41
2018-02-02T06:21:01.963Z,20.44
2018-02-02T06:23:27.913Z,20.41
2018-02-02T06:25:53.849Z,20.37
2018-02-02T06:28:19.873Z,20.49
2018-02-02T06:30:45.811Z,20.67
2018-02-02T06:33:11.766Z,20.62
2018-02-02T06:35:37.708Z,20.61
2018-02-02T06:38:03.657Z,20.61
2018-02-02T06:40:29.611Z,20.56
2018-02-02T06:42:55.560Z,20.49
2018-02-02T06:45:21.530Z,20.47
2018-02-02T06:47:47.477Z,20.55
2018-02-02T06:50:13.402Z,20.47
2018-02-02T06:52:39.350Z,20.58
2018-02-02T06:55:05.307Z,20.53
2018-02-02T06:57:31.252Z,20.51
2018-02-02T06:59:57.186Z,20.52
2018-02-02T07:02:23.133Z,20.40
2018-02-02T07:04:49.097Z,20.44
2018-02-02T07:07:15.069Z,20.42
2018-02-02T07:09:41.013Z,20.49
2018-02-02T07:12:06.954Z,20.41
2018-02-02T07:14:32.889Z,20.42
2018-02-02T07:16:58.866Z,20.41
2018-02-02T07:19:24.801Z,20.42
2018-02-02T07:21:50.749Z,20.37
2018-02-02T07:24:16.701Z,20.38
2018-02-02T07:26:42.645Z,20.42
2018-02-02T07:29:08.588Z,20.57
2018-02-02T07:31:34.534Z,20.57
2018-02-02T07:34:00.507Z,20.58
2018-02-02T07:36:26.473Z,20.57
2018-02-02T07:38:52.417Z,20.58
2018-02-02T07:41:18.389Z,20.50
2018-02-02T07:43:44.326Z,20.57
2018-02-02T07:46:10.267Z,20.54
2018-02-02T07:48:36.211Z,20.47
2018-02-02T07:51:02.207Z,20.46
2018-02-02T07:53:28.154Z,20.62
2018-02-02T07:55:54.160Z,20.44
2018-02-02T07:58:20.261Z,20.38
2018-02-02T08:00:46.269Z,20.45
2018-02-02T08:03:12.245Z,20.43
2018-02-02T08:05:38.191Z,20.40
2018-02-02T08:08:04.189Z,20.44
2018-02-02T08:10:30.125Z,20.37
2018-02-02T08:12:56.070Z,20.40
2018-02-02T08:15:22.041Z,20.33
2018-02-02T08:17:47.998Z,20.44
2018-02-02T08:20:13.934Z,20.34
2018-02-02T08:22:39.873Z,20.38
2018-02-02T08:25:05.812Z,20.35
2018-02-02T08:27:31.753Z,20.42
2018-02-02T08:29:57.717Z,20.52
2018-02-02T08:32:23.658Z,20.45
2018-02-02T08:34:49.609Z,20.43
2018-02-02T08:37:15.573Z,20.49
2018-02-02T08:39:41.521Z,20.51
2018-02-02T08:42:07.493Z,20.55
2018-02-02T08:44:33.433Z,20.74
2018-02-02T08:46:59.409Z,20.77
2018-02-02T08:49:25.417Z,20.71
2018-02-02T08:51:51.370Z,20.70
2018-02-02T08:54:17.320Z,20.55
2018-02-02T08:56:43.281Z,20.57
2018-02-02T08:59:09.246Z,20.48
2018-02-02T09:01:35.304Z,20.55
2018-02-02T09:04:01.253Z,20.57
2018-02-02T09:06:27.189Z,20.63
2018-02-02T09:08:53.150Z,20.70
2018-02-02T09:11:19.114Z,20.62
2018-02-02T09:13:45.070Z,20.67
2018-02-02T09:16:11.017Z,20.61
2018-02-02T09:18:36.953Z,20.81
2018-02-02T09:21:02.897Z,20.58
2018-02-02T09:23:28.882Z,20.44
2018-02-02T09:25:54.849Z,20.45
2018-02-02T09:28:20.797Z,20.48
2018-02-02T09:30:46.777Z,20.53
2018-02-02T09:33:12.716Z,20.55
2018-02-02T09:35:38.686Z,20.51
2018-02-02T09:38:04.648Z,20.45
2018-02-02T09:40:30.608Z,20.52
2018-02-02T09:42:56.569Z,20.52
2018-02-02T09:45:22.537Z,20.49
2018-02-02T09:47:48.577Z,20.42
2018-02-02T09:50:14.529Z,20.50
2018-02-02T09:52:40.473Z,20.55
2018-02-02T09:55:06.414Z,20.68
2018-02-02T09:57:32.341Z,20.73
2018-02-02T09:59:58.303Z,20.69
2018-02-02T10:02:24.253Z,20.65
2018-02-02T10:04:50.222Z,20.69
2018-02-02T10:07:16.177Z,20.62
2018-02-02T10:09:42.150Z,20.62
2018-02-02T10:12:08.093Z,20.61
2018-02-02T10:14:34.040Z,20.60
2018-02-02T10:16:59.977Z,20.58
2018-02-02T10:19:25.923Z,20.56
2018-02-02T10:21:51.879Z,20.57
2018-02-02T10:24:17.818Z,20.50
2018-02-02T10:26:43.774Z,20.54
2018-02-02T10:29:09.721Z,20.53
2018-02-02T10:31:35.664Z,20.55
2018-02-02T10:34:01.618Z,20.58
2018-02-02T10:36:27.628Z,20.63
2018-02-02T10:38:53.594Z,20.79
2018-02-02T10:41:19.538Z,20.60
2018-02-02T10:43:45.488Z,20.56
2018-02-02T10:46:11.446Z,20.56
2018-02-02T10:48:37.400Z,20.63
2018-02-02T10:51:03.337Z,20.58
2018-02-02T10:53:29.288Z,20.59
2018-02-02T10:55:55.244Z,20.57
2018-02-02T10:58:21.185Z,20.52
2018-02-02T11:00:47.143Z,20.55
2018-02-02T11:03:13.076Z,20.52
2018-02-02T11:05:39.059Z,20.64
2018-02-02T11:08:05.001Z,20.57
2018-02-02T11:10:30.951Z,20.49
2018-02-02T11:12:56.901Z,20.51
2018-02-02T11:15:22.861Z,20.49
2018-02-02T11:17:48.809Z,20.41
2018-02-02T11:20:14.765Z,20.46
2018-02-02T11:22:40.712Z,20.41
2018-02-02T11:25:06.665Z,20.45
2018-02-02T11:27:32.636Z,20.45
2018-02-02T11:29:58.606Z,20.39
2018-02-02T11:32:24.553Z,20.46
2018-02-02T11:34:50.520Z,20.38
2018-02-02T11:37:16.681Z,20.43
2018-02-02T11:39:42.685Z,20.46
2018-02-02T11:42:08.640Z,20.36
2018-02-02T11:44:34.602Z,20.38
2018-02-02T11:47:00.544Z,20.32
2018-02-02T11:49:26.511Z,20.37
2018-02-02T11:51:52.473Z,20.35
2018-02-02T11:54:18.418Z,20.30
2018-02-02T11:56:44.372Z,20.43
2018-02-02T11:59:10.330Z,20.55
2018-02-02T12:01:36.335Z,20.48
2018-02-02T12:04:02.220Z,20.47
2018-02-02T12:06:28.168Z,20.45
2018-02-02T12:08:54.132Z,20.47
2018-02-02T12:11:20.079Z,20.53
2018-02-02T12:13:46.020Z,20.52
2018-02-02T12:16:11.984Z,20.49
2018-02-02T12:18:37.958Z,20.57
2018-02-02T12:21:03.902Z,20.50
2018-02-02T12:23:29.856Z,20.46
2018-02-02T12:25:55.800Z,20.58
2018-02-02T12:28:21.759Z,20.48
2018-02-02T12:30:47.722Z,20.51
2018-02-02T12:33:13.670Z,20.58
2018-02-02T12:35:39.669Z,20.56
2018-02-02T12:38:05.624Z,20.60
2018-02-02T12:40:31.570Z,20.57
2018-02-02T12:42:57.606Z,20.51
2018-02-02T12:45:23.543Z,20.55
2018-02-02T12:47:49.542Z,20.55
2018-02-02T12:50:15.545Z,20.54
2018-02-02T12:52:41.449Z,20.51
2018-02-02T12:55:07.392Z,20.53
2018-02-02T12:57:33.349Z,20.57
2018-02-02T12:59:59.302Z,20.60
2018-02-02T13:02:25.213Z,20.56
2018-02-02T13:04:51.165Z,20.54
2018-02-02T13:07:17.121Z,20.49
2018-02-02T13:09:43.088Z,20.51
2018-02-02T13:12:09.051Z,20.52
2018-02-02T13:14:34.997Z,20.52
2018-02-02T13:17:01.086Z,20.56
2018-02-02T13:19:27.032Z,20.48
2018-02-02T13:21:52.973Z,20.45
2018-02-02T13:24:18.923Z,20.53
2018-02-02T13:26:44.893Z,20.60
2018-02-02T13:29:10.862Z,20.57
2018-02-02T13:31:36.862Z,20.45
2018-02-02T13:34:02.809Z,20.50
2018-02-02T13:36:28.788Z,20.58
2018-02-02T13:38:54.790Z,20.49
2018-02-02T13:41:20.746Z,20.49
2018-02-02T13:43:46.683Z,20.50
2018-02-02T13:46:12.657Z,20.50
2018-02-02T13:48:38.616Z,20.53
2018-02-02T13:51:04.563Z,20.53
2018-02-02T13:53:30.667Z,20.52
2018-02-02T13:55:56.617Z,20.50
2018-02-02T13:58:22.653Z,20.52
2018-02-02T14:00:48.599Z,20.58
2018-02-02T14:03:14.608Z,20.51
2018-02-02T14:05:40.548Z,20.48
2018-02-02T14:08:06.499Z,20.55
2018-02-02T14:10:32.446Z,20.62
2018-02-02T14:12:58.412Z,20.55
2018-02-02T14:15:24.357Z,20.55
2018-02-02T14:17:50.309Z,20.56
2018-02-02T14:20:16.276Z,20.52
2018-02-02T14:22:42.228Z,20.51
2018-02-02T14:25:08.165Z,20.49
2018-02-02T14:27:34.112Z,20.52
2018-02-02T14:30:00.095Z,20.52
2018-02-02T14:32:26.042Z,20.55
2018-02-02T14:34:51.986Z,20.63
2018-02-02T14:37:17.953Z,20.76
2018-02-02T14:39:43.942Z,20.73
2018-02-02T14:42:09.874Z,20.72
2018-02-02T14:44:35.823Z,20.74
2018-02-02T14:47:01.760Z,20.73
2018-02-02T14:49:27.704Z,20.67
2018-02-02T14:51:53.656Z,20.64
2018-02-02T14:54:19.639Z,20.66
2018-02-02T14:56:45.601Z,20.65
2018-02-02T14:59:11.652Z,20.65
2018-02-02T15:01:37.581Z,20.66
2018-02-02T15:04:03.555Z,20.64
2018-02-02T15:06:29.466Z,20.62
2018-02-02T15:08:55.413Z,20.58
2018-02-02T15:11:21.373Z,20.60
2018-02-02T15:13:47.304Z,20.61
2018-02-02T15:16:13.320Z,20.63
2018-02-02T15:18:39.262Z,20.58
2018-02-02T15:21:05.280Z,20.55
2018-02-02T15:23:31.216Z,20.51
2018-02-02T15:25:57.188Z,20.53
2018-02-02T15:28:23.161Z,20.56
2018-02-02T15:30:49.117Z,20.59
2018-02-02T15:33:15.061Z,20.58
2018-02-02T15:35:40.990Z,20.54
2018-02-02T15:38:06.933Z,20.57
2018-02-02T15:40:32.916Z,20.80
2018-02-02T15:42:58.880Z,20.53
2018-02-02T15:45:24.818Z,20.61
2018-02-02T15:47:50.766Z,20.51
2018-02-02T15:50:16.837Z,20.52
2018-02-02T15:52:42.785Z,20.58
2018-02-02T15:55:08.876Z,20.52
2018-02-02T15:57:34.909Z,20.48
2018-02-02T16:00:00.921Z,20.52
2018-02-02T16:02:26.880Z,20.53
2018-02-02T16:04:52.781Z,20.50
2018-02-02T16:07:18.753Z,20.51
2018-02-02T16:09:44.737Z,20.49
2018-02-02T16:12:10.680Z,20.43
2018-02-02T16:14:36.633Z,20.53
2018-02-02T16:17:02.593Z,20.58
2018-02-02T16:19:28.572Z,20.53
2018-02-02T16:21:54.571Z,20.53
2018-02-02T16:24:20.569Z,20.47
2018-02-02T16:26:46.513Z,20.53
2018-02-02T16:29:12.473Z,20.51
2018-02-02T16:31:38.437Z,20.56
2018-02-02T16:34:04.392Z,20.54
2018-02-02T16:36:30.339Z,20.55
2018-02-02T16:38:56.277Z,20.58
2018-02-02T16:41:22.223Z,20.48
2018-02-02T16:43:48.205Z,20.54
2018-02-02T16:46:14.150Z,20.48
2018-02-02T16:48:40.109Z,20.43
2018-02-02T16:51:06.057Z,20.47
2018-02-02T16:53:32.031Z,20.56
2018-02-02T16:55:57.979Z,20.48
2018-02-02T16:58:23.977Z,20.49
2018-02-02T17:00:49.968Z,20.47
2018-02-02T17:03:15.935Z,20.52
2018-02-02T17:05:41.994Z,20.54
2018-02-02T17:08:07.953Z,20.52
2018-02-02T17:10:33.909Z,20.53
2018-02-02T17:12:59.882Z,20.46
2018-02-02T17:15:25.829Z,20.53
2018-02-02T17:17:51.781Z,20.48
2018-02-02T17:20:17.729Z,20.50
2018-02-02T17:22:43.761Z,20.44
2018-02-02T17:25:09.810Z,20.43
2018-02-02T17:27:35.784Z,20.47
2018-02-02T17:30:01.764Z,20.50
2018-02-02T17:32:27.805Z,20.53
2018-02-02T17:34:53.748Z,20.47
2018-02-02T17:37:19.695Z,20.51
2018-02-02T17:39:45.682Z,20.53
2018-02-02T17:42:11.647Z,20.53
2018-02-02T17:44:37.586Z,20.49
2018-02-02T17:47:03.553Z,20.43
2018-02-02T17:49:29.490Z,20.48
2018-02-02T17:51:55.437Z,20.58
2018-02-02T17:54:21.408Z,20.52
2018-02-02T17:56:47.357Z,20.53
2018-02-02T17:59:13.368Z,20.51
2018-02-02T18:01:39.348Z,20.54
2018-02-02T18:04:05.290Z,20.49
2018-02-02T18:06:31.244Z,20.50
2018-02-02T18:08:57.215Z,20.49
2018-02-02T18:11:23.159Z,20.52
2018-02-02T18:13:49.148Z,20.52
2018-02-02T18:16:15.107Z,20.51
2018-02-02T18:18:41.098Z,20.50
2018-02-02T18:21:07.053Z,20.47
2018-02-02T18:23:33.606Z,20.51
2018-02-02T18:25:59.538Z,20.53
2018-02-02T18:28:25.511Z,20.60
2018-02-02T18:30:51.441Z,20.49
2018-02-02T18:33:17.491Z,20.92
2018-02-02T18:35:43.440Z,20.53
2018-02-02T18:38:09.461Z,20.54
2018-02-02T18:40:35.475Z,20.59
2018-02-02T18:43:01.494Z,20.52
2018-02-02T18:45:27.533Z,20.56
2018-02-02T18:47:54.188Z,20.59
2018-02-02T18:50:20.174Z,20.51
2018-02-02T18:52:46.161Z,20.59
2018-02-02T18:55:12.145Z,20.56
2018-02-02T18:57:38.098Z,20.48
2018-02-02T19:00:04.113Z,20.50
2018-02-02T19:02:30.074Z,20.53
2018-02-02T19:04:56.041Z,20.50
2018-02-02T19:07:22.024Z,20.44
2018-02-02T19:09:47.997Z,20.41
2018-02-02T19:12:13.980Z,20.45
2018-02-02T19:14:39.938Z,20.42
2018-02-02T19:17:05.902Z,20.40
2018-02-02T19:19:31.878Z,20.42
2018-02-02T19:21:57.869Z,20.48
2018-02-02T19:24:23.824Z,20.40
2018-02-02T19:26:49.793Z,20.43
2018-02-02T19:29:15.737Z,20.44
2018-02-02T19:31:41.685Z,20.44
2018-02-02T19:34:07.653Z,20.37
2018-02-02T19:36:33.594Z,20.36
2018-02-02T19:38:59.573Z,20.34
2018-02-02T19:41:25.569Z,20.32
2018-02-02T19:43:51.522Z,20.38
2018-02-02T19:46:17.480Z,20.51
2018-02-02T19:48:43.457Z,20.51
2018-02-02T19:51:09.427Z,20.47
2018-02-02T19:53:35.377Z,20.40
2018-02-02T19:56:01.348Z,20.45
2018-02-02T19:58:27.377Z,20.43
2018-02-02T20:00:53.402Z,20.45
2018-02-02T20:03:19.533Z,20.51
2018-02-02T20:05:45.481Z,20.47
2018-02-02T20:08:11.484Z,20.55
2018-02-02T20:10:37.428Z,20.45
2018-02-02T20:13:03.377Z,20.47
2018-02-02T20:15:29.392Z,20.40
2018-02-02T20:17:55.353Z,20.42
2018-02-02T20:20:21.320Z,20.38
2018-02-02T20:22:47.265Z,20.35
2018-02-02T20:25:13.233Z,20.38
2018-02-02T20:27:39.182Z,20.33
2018-02-02T20:30:05.128Z,20.37
2018-02-02T20:32:31.187Z,20.30
2018-02-02T20:34:57.149Z,20.34
2018-02-02T20:37:23.129Z,20.30
2018-02-02T20:39:49.158Z,20.31
2018-02-02T20:42:15.118Z,20.39
2018-02-02T20:44:41.103Z,20.32
2018-02-02T20:47:07.072Z,20.31
2018-02-02T20:49:33.273Z,20.30
2018-02-02T20:51:59.173Z,20.34
2018-02-02T20:54:25.130Z,20.29
2018-02-02T20:56:51.158Z,20.25
2018-02-02T20:59:17.149Z,20.35
2018-02-02T21:01:43.126Z,20.36
2018-02-02T21:04:09.125Z,20.31
2018-02-02T21:06:35.166Z,20.32
2018-02-02T21:09:01.167Z,20.33
2018-02-02T21:11:27.232Z,20.30
2018-02-02T21:13:53.248Z,20.32
2018-02-02T21:16:19.194Z,20.30
2018-02-02T21:18:45.151Z,20.27
2018-02-02T21:21:11.154Z,20.29
2018-02-02T21:23:37.094Z,20.31
2018-02-02T21:26:03.125Z,20.31
2018-02-02T21:28:29.081Z,20.32
2018-02-02T21:30:55.039Z,20.31
2018-02-02T21:33:20.981Z,20.31
2018-02-02T21:35:46.929Z,20.31
2018-02-02T21:38:12.918Z,20.27
2018-02-02T21:40:38.867Z,20.35
2018-02-02T21:43:04.933Z,20.35
2018-02-02T21:45:30.918Z,20.32
2018-02-02T21:47:56.866Z,20.42
2018-02-02T21:50:22.813Z,20.34
2018-02-02T21:52:48.793Z,20.29
2018-02-02T21:55:14.777Z,20.28
2018-02-02T21:57:40.767Z,20.25
2018-02-02T22:00:06.782Z,20.24
2018-02-02T22:02:32.734Z,20.27
2018-02-02T22:04:58.694Z,20.27
2018-02-02T22:07:24.733Z,20.27
2018-02-02T22:09:50.839Z,20.29
2018-02-02T22:12:16.797Z,20.21
2018-02-02T22:14:42.756Z,20.21
2018-02-02T22:17:08.758Z,20.13
2018-02-02T22:19:34.719Z,20.12
2018-02-02T22:22:00.674Z,20.18
2018-02-02T22:24:26.645Z,20.13
2018-02-02T22:26:52.698Z,20.15
2018-02-02T22:29:18.657Z,20.15
2018-02-02T22:31:44.661Z,20.10
2018-02-02T22:34:10.605Z,20.13
2018-02-02T22:36:36.550Z,20.08
2018-02-02T22:39:02.500Z,20.08
2018-02-02T22:41:28.486Z,20.06
2018-02-02T22:43:54.542Z,20.03
2018-02-02T22:46:20.526Z,20.05
2018-02-02T22:48:46.473Z,20.07
2018-02-02T22:51:12.423Z,20.02
2018-02-02T22:53:38.369Z,20.04
2018-02-02T22:56:04.345Z,20.03
2018-02-02T22:58:30.310Z,20.05
2018-02-02T23:00:56.265Z,20.03
2018-02-02T23:03:22.221Z,20.06
2018-02-02T23:05:48.221Z,20.05
2018-02-02T23:08:14.177Z,20.25
2018-02-02T23:10:40.125Z,20.08
2018-02-02T23:13:06.077Z,20.08
2018-02-02T23:15:32.059Z,20.09
2018-02-02T23:17:58.035Z,20.04
2018-02-02T23:20:23.996Z,20.03
2018-02-02T23:22:49.957Z,19.98
2018-02-02T23:25:15.921Z,20.05
2018-02-02T23:27:41.869Z,20.04
2018-02-02T23:30:07.819Z,19.99
2018-02-02T23:32:33.773Z,20.00
2018-02-02T23:34:59.721Z,19.93
2018-02-02T23:37:25.722Z,19.99
2018-02-02T23:39:51.678Z,19.97
2018-02-02T23:42:17.643Z,19.94
2018-02-02T23:44:43.600Z,19.95
2018-02-02T23:47:09.549Z,19.99
2018-02-02T23:49:35.518Z,19.98
2018-02-02T23:52:01.468Z,20.01
2018-02-02T23:54:27.434Z,19.96
2018-02-02T23:56:53.390Z,19.95
2018-02-02T23:59:19.353Z,20.03
